Terminal Aerodrome Forecast
Issued by NWS

Home | Current Version | Previous Version | Graphics & Text | Print | Product List | Glossary On
Versions: 1 2 3 4 5 6 7 8 9 10 11 12 13 14 15 16 17 18
000
FTUS43 KGRB 180900 AAA
TAFATW
TAF AMD
KATW 180943Z 1810/1906 03012G20KT P6SM SKC
     FM181400 04014G20KT P6SM SCT200
     FM190100 08008KT P6SM BKN150=

USA.gov is the U.S. government's official web portal to all federal, state and local government web resources and services.